sensor_id;sensor_type;location;lat;lon;timestamp;P1;durP1;ratioP1;P2;durP2;ratioP2
73857;SDS011;62195;55.030;73.278;2022-07-30T00:00:21;9.70;;;6.10;;
73857;SDS011;62195;55.030;73.278;2022-07-30T00:02:47;7.95;;;5.85;;
73857;SDS011;62195;55.030;73.278;2022-07-30T00:05:15;8.27;;;6.22;;
73857;SDS011;62195;55.030;73.278;2022-07-30T00:07:41;10.15;;;5.95;;
73857;SDS011;62195;55.030;73.278;2022-07-30T00:10:17;9.30;;;6.15;;
73857;SDS011;62195;55.030;73.278;2022-07-30T00:12:45;9.35;;;6.00;;
73857;SDS011;62195;55.030;73.278;2022-07-30T00:15:11;10.98;;;5.88;;
73857;SDS011;62195;55.030;73.278;2022-07-30T00:17:37;8.48;;;6.10;;
73857;SDS011;62195;55.030;73.278;2022-07-30T00:20:04;9.98;;;5.93;;
73857;SDS011;62195;55.030;73.278;2022-07-30T00:22:32;8.45;;;6.20;;
73857;SDS011;62195;55.030;73.278;2022-07-30T00:24:58;7.20;;;6.18;;
73857;SDS011;62195;55.030;73.278;2022-07-30T00:27:30;7.13;;;5.53;;
73857;SDS011;62195;55.030;73.278;2022-07-30T00:30:00;9.38;;;6.13;;
73857;SDS011;62195;55.030;73.278;2022-07-30T00:32:27;9.80;;;5.90;;
73857;SDS011;62195;55.030;73.278;2022-07-30T00:34:53;7.93;;;5.93;;
73857;SDS011;62195;55.030;73.278;2022-07-30T00:37:20;11.48;;;6.38;;
73857;SDS011;62195;55.030;73.278;2022-07-30T00:39:46;7.65;;;6.22;;
73857;SDS011;62195;55.030;73.278;2022-07-30T00:42:12;9.52;;;5.85;;
73857;SDS011;62195;55.030;73.278;2022-07-30T00:44:39;11.27;;;6.13;;
73857;SDS011;62195;55.030;73.278;2022-07-30T00:47:05;10.15;;;6.57;;
73857;SDS011;62195;55.030;73.278;2022-07-30T00:49:32;7.70;;;6.22;;
73857;SDS011;62195;55.030;73.278;2022-07-30T00:52:06;8.57;;;6.38;;
73857;SDS011;62195;55.030;73.278;2022-07-30T00:54:32;10.73;;;6.78;;
73857;SDS011;62195;55.030;73.278;2022-07-30T00:56:58;12.18;;;6.57;;
73857;SDS011;62195;55.030;73.278;2022-07-30T00:59:25;8.77;;;6.97;;
73857;SDS011;62195;55.030;73.278;2022-07-30T01:01:54;8.75;;;6.70;;
73857;SDS011;62195;55.030;73.278;2022-07-30T01:04:26;13.75;;;7.55;;
73857;SDS011;62195;55.030;73.278;2022-07-30T01:06:52;10.43;;;7.57;;
73857;SDS011;62195;55.030;73.278;2022-07-30T01:09:18;9.20;;;6.68;;
73857;SDS011;62195;55.030;73.278;2022-07-30T01:11:49;11.07;;;7.00;;
73857;SDS011;62195;55.030;73.278;2022-07-30T01:14:15;8.30;;;6.85;;
73857;SDS011;62195;55.030;73.278;2022-07-30T01:16:41;10.18;;;7.18;;
73857;SDS011;62195;55.030;73.278;2022-07-30T01:19:21;8.68;;;7.05;;
73857;SDS011;62195;55.030;73.278;2022-07-30T01:27:54;9.52;;;6.93;;
73857;SDS011;62195;55.030;73.278;2022-07-30T01:30:24;9.32;;;6.28;;
73857;SDS011;62195;55.030;73.278;2022-07-30T01:32:54;6.80;;;6.00;;
73857;SDS011;62195;55.030;73.278;2022-07-30T01:35:23;11.38;;;6.60;;
73857;SDS011;62195;55.030;73.278;2022-07-30T01:37:55;10.57;;;6.88;;
73857;SDS011;62195;55.030;73.278;2022-07-30T01:40:26;11.10;;;6.90;;
73857;SDS011;62195;55.030;73.278;2022-07-30T01:42:55;9.52;;;6.68;;
73857;SDS011;62195;55.030;73.278;2022-07-30T01:45:23;9.70;;;6.82;;
73857;SDS011;62195;55.030;73.278;2022-07-30T01:47:51;9.98;;;6.90;;
73857;SDS011;62195;55.030;73.278;2022-07-30T01:50:20;9.70;;;7.60;;
73857;SDS011;62195;55.030;73.278;2022-07-30T01:52:47;11.68;;;6.72;;
73857;SDS011;62195;55.030;73.278;2022-07-30T01:55:18;11.43;;;7.72;;
73857;SDS011;62195;55.030;73.278;2022-07-30T01:57:50;8.43;;;7.50;;
73857;SDS011;62195;55.030;73.278;2022-07-30T02:00:18;11.15;;;7.70;;
73857;SDS011;62195;55.030;73.278;2022-07-30T02:02:48;13.20;;;7.18;;
73857;SDS011;62195;55.030;73.278;2022-07-30T02:05:25;10.73;;;8.18;;
73857;SDS011;62195;55.030;73.278;2022-07-30T02:08:00;9.15;;;7.80;;
73857;SDS011;62195;55.030;73.278;2022-07-30T02:10:36;10.55;;;8.27;;
73857;SDS011;62195;55.030;73.278;2022-07-30T02:13:14;11.43;;;8.27;;
73857;SDS011;62195;55.030;73.278;2022-07-30T02:15:52;11.30;;;8.57;;
73857;SDS011;62195;55.030;73.278;2022-07-30T02:19:05;10.65;;;8.13;;
73857;SDS011;62195;55.030;73.278;2022-07-30T02:21:13;11.45;;;8.38;;
73857;SDS011;62195;55.030;73.278;2022-07-30T02:23:44;12.85;;;8.95;;
73857;SDS011;62195;55.030;73.278;2022-07-30T02:26:13;13.20;;;8.88;;
73857;SDS011;62195;55.030;73.278;2022-07-30T02:28:44;12.52;;;8.07;;
73857;SDS011;62195;55.030;73.278;2022-07-30T02:31:14;11.32;;;8.20;;
73857;SDS011;62195;55.030;73.278;2022-07-30T02:33:45;10.25;;;8.50;;
73857;SDS011;62195;55.030;73.278;2022-07-30T02:36:17;10.98;;;8.75;;
73857;SDS011;62195;55.030;73.278;2022-07-30T02:38:55;13.98;;;9.23;;
73857;SDS011;62195;55.030;73.278;2022-07-30T02:41:24;12.80;;;9.00;;
73857;SDS011;62195;55.030;73.278;2022-07-30T02:43:52;10.00;;;8.25;;
73857;SDS011;62195;55.030;73.278;2022-07-30T02:46:20;10.25;;;8.65;;
73857;SDS011;62195;55.030;73.278;2022-07-30T02:49:20;10.20;;;9.05;;
73857;SDS011;62195;55.030;73.278;2022-07-30T02:51:53;13.35;;;10.05;;
73857;SDS011;62195;55.030;73.278;2022-07-30T02:54:21;11.13;;;9.25;;
73857;SDS011;62195;55.030;73.278;2022-07-30T02:56:49;12.93;;;10.40;;
73857;SDS011;62195;55.030;73.278;2022-07-30T02:59:18;13.30;;;10.27;;
73857;SDS011;62195;55.030;73.278;2022-07-30T03:01:56;15.15;;;10.73;;
73857;SDS011;62195;55.030;73.278;2022-07-30T03:04:24;12.50;;;10.57;;
73857;SDS011;62195;55.030;73.278;2022-07-30T03:06:53;12.75;;;10.77;;
73857;SDS011;62195;55.030;73.278;2022-07-30T03:09:20;16.60;;;10.63;;
73857;SDS011;62195;55.030;73.278;2022-07-30T03:11:48;13.80;;;10.43;;
73857;SDS011;62195;55.030;73.278;2022-07-30T03:14:17;13.68;;;10.63;;
73857;SDS011;62195;55.030;73.278;2022-07-30T03:16:44;12.90;;;10.95;;
73857;SDS011;62195;55.030;73.278;2022-07-30T03:19:16;12.23;;;10.48;;
73857;SDS011;62195;55.030;73.278;2022-07-30T03:21:47;13.77;;;11.60;;
73857;SDS011;62195;55.030;73.278;2022-07-30T03:24:15;12.95;;;11.23;;
73857;SDS011;62195;55.030;73.278;2022-07-30T03:26:43;13.32;;;11.23;;
73857;SDS011;62195;55.030;73.278;2022-07-30T03:29:11;14.52;;;11.82;;
73857;SDS011;62195;55.030;73.278;2022-07-30T03:31:49;13.90;;;11.38;;
73857;SDS011;62195;55.030;73.278;2022-07-30T03:34:20;13.65;;;11.27;;
73857;SDS011;62195;55.030;73.278;2022-07-30T03:36:53;12.05;;;10.77;;
73857;SDS011;62195;55.030;73.278;2022-07-30T03:39:21;13.05;;;10.98;;
73857;SDS011;62195;55.030;73.278;2022-07-30T03:41:59;12.18;;;10.88;;
73857;SDS011;62195;55.030;73.278;2022-07-30T03:44:28;12.23;;;10.38;;
73857;SDS011;62195;55.030;73.278;2022-07-30T03:46:56;15.65;;;10.93;;
73857;SDS011;62195;55.030;73.278;2022-07-30T03:49:25;15.23;;;10.55;;
73857;SDS011;62195;55.030;73.278;2022-07-30T03:51:52;12.73;;;11.32;;
73857;SDS011;62195;55.030;73.278;2022-07-30T03:54:24;11.47;;;10.27;;
73857;SDS011;62195;55.030;73.278;2022-07-30T03:57:15;12.75;;;11.43;;
73857;SDS011;62195;55.030;73.278;2022-07-30T03:59:43;13.02;;;11.02;;
73857;SDS011;62195;55.030;73.278;2022-07-30T04:02:09;11.82;;;10.52;;
73857;SDS011;62195;55.030;73.278;2022-07-30T04:04:57;12.57;;;11.27;;
73857;SDS011;62195;55.030;73.278;2022-07-30T04:07:23;13.15;;;10.88;;
73857;SDS011;62195;55.030;73.278;2022-07-30T04:09:50;12.73;;;11.45;;
73857;SDS011;62195;55.030;73.278;2022-07-30T04:12:48;13.27;;;11.90;;
73857;SDS011;62195;55.030;73.278;2022-07-30T04:15:21;15.75;;;11.95;;
73857;SDS011;62195;55.030;73.278;2022-07-30T04:17:48;15.70;;;11.60;;
73857;SDS011;62195;55.030;73.278;2022-07-30T04:20:26;14.27;;;12.73;;
73857;SDS011;62195;55.030;73.278;2022-07-30T04:22:56;15.95;;;11.05;;
73857;SDS011;62195;55.030;73.278;2022-07-30T04:25:29;15.35;;;11.35;;
73857;SDS011;62195;55.030;73.278;2022-07-30T04:27:57;13.90;;;12.40;;
73857;SDS011;62195;55.030;73.278;2022-07-30T04:30:23;13.35;;;12.10;;
73857;SDS011;62195;55.030;73.278;2022-07-30T04:32:50;13.70;;;12.00;;
73857;SDS011;62195;55.030;73.278;2022-07-30T04:35:34;13.05;;;11.63;;
73857;SDS011;62195;55.030;73.278;2022-07-30T04:38:16;13.85;;;12.45;;
73857;SDS011;62195;55.030;73.278;2022-07-30T04:40:46;14.68;;;12.32;;
73857;SDS011;62195;55.030;73.278;2022-07-30T04:43:13;12.70;;;11.50;;
73857;SDS011;62195;55.030;73.278;2022-07-30T04:45:39;13.90;;;11.40;;
73857;SDS011;62195;55.030;73.278;2022-07-30T04:48:06;15.50;;;11.93;;
73857;SDS011;62195;55.030;73.278;2022-07-30T04:50:52;12.55;;;11.35;;
73857;SDS011;62195;55.030;73.278;2022-07-30T04:53:22;12.10;;;10.85;;
73857;SDS011;62195;55.030;73.278;2022-07-30T04:55:57;14.02;;;12.07;;
73857;SDS011;62195;55.030;73.278;2022-07-30T04:58:27;15.20;;;11.50;;
73857;SDS011;62195;55.030;73.278;2022-07-30T05:00:54;12.95;;;10.88;;
73857;SDS011;62195;55.030;73.278;2022-07-30T05:03:30;14.52;;;11.65;;
73857;SDS011;62195;55.030;73.278;2022-07-30T05:08:35;12.85;;;10.57;;
73857;SDS011;62195;55.030;73.278;2022-07-30T05:11:09;12.75;;;9.95;;
73857;SDS011;62195;55.030;73.278;2022-07-30T05:13:41;11.52;;;10.35;;
73857;SDS011;62195;55.030;73.278;2022-07-30T05:18:37;11.07;;;9.02;;
73857;SDS011;62195;55.030;73.278;2022-07-30T05:21:05;10.90;;;9.00;;
73857;SDS011;62195;55.030;73.278;2022-07-30T05:23:45;11.13;;;8.23;;
73857;SDS011;62195;55.030;73.278;2022-07-30T05:26:24;9.65;;;8.50;;
73857;SDS011;62195;55.030;73.278;2022-07-30T05:28:51;9.80;;;8.20;;
73857;SDS011;62195;55.030;73.278;2022-07-30T05:31:24;9.55;;;8.48;;
73857;SDS011;62195;55.030;73.278;2022-07-30T05:33:56;12.10;;;8.05;;
73857;SDS011;62195;55.030;73.278;2022-07-30T05:36:35;8.73;;;6.90;;
73857;SDS011;62195;55.030;73.278;2022-07-30T05:39:01;7.60;;;6.80;;
73857;SDS011;62195;55.030;73.278;2022-07-30T05:41:57;8.00;;;7.20;;
73857;SDS011;62195;55.030;73.278;2022-07-30T05:44:46;9.30;;;6.13;;
73857;SDS011;62195;55.030;73.278;2022-07-30T05:47:12;9.25;;;6.53;;
73857;SDS011;62195;55.030;73.278;2022-07-30T05:49:39;9.25;;;6.65;;
73857;SDS011;62195;55.030;73.278;2022-07-30T05:54:38;7.50;;;6.10;;
73857;SDS011;62195;55.030;73.278;2022-07-30T05:57:23;7.03;;;6.35;;
73857;SDS011;62195;55.030;73.278;2022-07-30T05:59:49;7.38;;;6.10;;
73857;SDS011;62195;55.030;73.278;2022-07-30T06:02:26;8.63;;;5.78;;
73857;SDS011;62195;55.030;73.278;2022-07-30T06:05:12;5.20;;;4.70;;
73857;SDS011;62195;55.030;73.278;2022-07-30T06:07:38;7.20;;;4.95;;
73857;SDS011;62195;55.030;73.278;2022-07-30T06:10:06;9.73;;;4.90;;
73857;SDS011;62195;55.030;73.278;2022-07-30T06:12:38;6.95;;;5.00;;
73857;SDS011;62195;55.030;73.278;2022-07-30T06:15:10;6.22;;;5.10;;
73857;SDS011;62195;55.030;73.278;2022-07-30T06:17:44;6.90;;;6.20;;
73857;SDS011;62195;55.030;73.278;2022-07-30T06:20:26;6.93;;;5.10;;
73857;SDS011;62195;55.030;73.278;2022-07-30T06:23:03;8.45;;;5.95;;
73857;SDS011;62195;55.030;73.278;2022-07-30T06:25:49;8.80;;;5.93;;
73857;SDS011;62195;55.030;73.278;2022-07-30T06:28:16;7.43;;;4.50;;
73857;SDS011;62195;55.030;73.278;2022-07-30T06:30:44;5.45;;;4.43;;
73857;SDS011;62195;55.030;73.278;2022-07-30T06:33:13;4.80;;;3.95;;
73857;SDS011;62195;55.030;73.278;2022-07-30T06:35:40;7.97;;;4.60;;
73857;SDS011;62195;55.030;73.278;2022-07-30T06:38:12;4.90;;;4.40;;
73857;SDS011;62195;55.030;73.278;2022-07-30T06:40:52;7.40;;;4.90;;
73857;SDS011;62195;55.030;73.278;2022-07-30T06:43:27;6.53;;;5.20;;
73857;SDS011;62195;55.030;73.278;2022-07-30T06:46:16;7.18;;;5.43;;
73857;SDS011;62195;55.030;73.278;2022-07-30T06:48:48;5.88;;;5.00;;
73857;SDS011;62195;55.030;73.278;2022-07-30T06:51:14;8.90;;;5.13;;
73857;SDS011;62195;55.030;73.278;2022-07-30T06:53:40;7.28;;;4.78;;
73857;SDS011;62195;55.030;73.278;2022-07-30T06:56:13;9.23;;;4.43;;
73857;SDS011;62195;55.030;73.278;2022-07-30T06:59:07;5.30;;;4.43;;
73857;SDS011;62195;55.030;73.278;2022-07-30T07:01:40;5.32;;;4.50;;
73857;SDS011;62195;55.030;73.278;2022-07-30T07:04:07;5.07;;;3.92;;
73857;SDS011;62195;55.030;73.278;2022-07-30T07:06:36;8.88;;;4.13;;
73857;SDS011;62195;55.030;73.278;2022-07-30T07:09:03;10.15;;;4.63;;
73857;SDS011;62195;55.030;73.278;2022-07-30T07:11:40;5.10;;;4.60;;
73857;SDS011;62195;55.030;73.278;2022-07-30T07:14:10;6.40;;;5.72;;
73857;SDS011;62195;55.030;73.278;2022-07-30T07:16:36;11.85;;;6.30;;
73857;SDS011;62195;55.030;73.278;2022-07-30T07:19:32;7.15;;;6.55;;
73857;SDS011;62195;55.030;73.278;2022-07-30T07:21:59;7.35;;;6.65;;
73857;SDS011;62195;55.030;73.278;2022-07-30T07:24:25;10.02;;;6.47;;
73857;SDS011;62195;55.030;73.278;2022-07-30T07:27:05;6.93;;;5.78;;
73857;SDS011;62195;55.030;73.278;2022-07-30T07:29:42;8.82;;;6.20;;
73857;SDS011;62195;55.030;73.278;2022-07-30T07:32:09;6.40;;;5.80;;
73857;SDS011;62195;55.030;73.278;2022-07-30T07:34:38;8.40;;;6.32;;
73857;SDS011;62195;55.030;73.278;2022-07-30T07:37:05;6.97;;;6.38;;
73857;SDS011;62195;55.030;73.278;2022-07-30T07:39:31;10.68;;;6.50;;
73857;SDS011;62195;55.030;73.278;2022-07-30T07:41:57;8.57;;;6.60;;
73857;SDS011;62195;55.030;73.278;2022-07-30T07:44:27;8.90;;;6.78;;
73857;SDS011;62195;55.030;73.278;2022-07-30T07:46:53;7.93;;;7.18;;
73857;SDS011;62195;55.030;73.278;2022-07-30T07:49:25;9.50;;;7.18;;
73857;SDS011;62195;55.030;73.278;2022-07-30T07:51:51;8.70;;;7.30;;
73857;SDS011;62195;55.030;73.278;2022-07-30T07:54:19;11.00;;;8.02;;
73857;SDS011;62195;55.030;73.278;2022-07-30T07:56:51;8.23;;;7.43;;
73857;SDS011;62195;55.030;73.278;2022-07-30T07:59:25;10.10;;;7.85;;
73857;SDS011;62195;55.030;73.278;2022-07-30T08:01:52;10.73;;;8.38;;
73857;SDS011;62195;55.030;73.278;2022-07-30T08:04:27;13.48;;;8.00;;
73857;SDS011;62195;55.030;73.278;2022-07-30T08:07:08;9.05;;;7.85;;
73857;SDS011;62195;55.030;73.278;2022-07-30T08:09:59;9.13;;;8.10;;
73857;SDS011;62195;55.030;73.278;2022-07-30T08:12:31;11.48;;;8.27;;
73857;SDS011;62195;55.030;73.278;2022-07-30T08:15:15;9.50;;;8.27;;
73857;SDS011;62195;55.030;73.278;2022-07-30T08:18:00;11.38;;;8.18;;
73857;SDS011;62195;55.030;73.278;2022-07-30T08:20:45;10.90;;;8.50;;
73857;SDS011;62195;55.030;73.278;2022-07-30T08:25:48;10.93;;;8.85;;
73857;SDS011;62195;55.030;73.278;2022-07-30T08:32:17;9.35;;;8.23;;
73857;SDS011;62195;55.030;73.278;2022-07-30T08:34:45;11.88;;;8.48;;
73857;SDS011;62195;55.030;73.278;2022-07-30T08:37:11;9.90;;;8.35;;
73857;SDS011;62195;55.030;73.278;2022-07-30T08:39:38;8.75;;;7.95;;
73857;SDS011;62195;55.030;73.278;2022-07-30T08:42:04;10.43;;;8.40;;
73857;SDS011;62195;55.030;73.278;2022-07-30T08:44:31;8.85;;;7.95;;
73857;SDS011;62195;55.030;73.278;2022-07-30T08:47:04;10.45;;;8.18;;
73857;SDS011;62195;55.030;73.278;2022-07-30T08:50:09;11.10;;;8.10;;
73857;SDS011;62195;55.030;73.278;2022-07-30T08:52:47;15.80;;;8.50;;
73857;SDS011;62195;55.030;73.278;2022-07-30T08:55:21;8.57;;;7.50;;
73857;SDS011;62195;55.030;73.278;2022-07-30T08:57:48;8.30;;;7.43;;
73857;SDS011;62195;55.030;73.278;2022-07-30T09:00:15;8.82;;;7.45;;
73857;SDS011;62195;55.030;73.278;2022-07-30T09:02:43;7.20;;;6.50;;
73857;SDS011;62195;55.030;73.278;2022-07-30T09:05:09;14.60;;;6.55;;
73857;SDS011;62195;55.030;73.278;2022-07-30T09:07:38;7.65;;;6.55;;
73857;SDS011;62195;55.030;73.278;2022-07-30T09:10:10;6.78;;;6.07;;
73857;SDS011;62195;55.030;73.278;2022-07-30T09:12:38;9.77;;;6.60;;
73857;SDS011;62195;55.030;73.278;2022-07-30T09:17:45;5.50;;;4.90;;
73857;SDS011;62195;55.030;73.278;2022-07-30T09:20:20;8.77;;;4.97;;
73857;SDS011;62195;55.030;73.278;2022-07-30T09:22:48;7.22;;;4.38;;
73857;SDS011;62195;55.030;73.278;2022-07-30T09:25:43;4.45;;;3.47;;
73857;SDS011;62195;55.030;73.278;2022-07-30T09:28:35;7.57;;;3.97;;
73857;SDS011;62195;55.030;73.278;2022-07-30T09:31:22;4.70;;;4.20;;
73857;SDS011;62195;55.030;73.278;2022-07-30T09:34:21;3.92;;;3.20;;
73857;SDS011;62195;55.030;73.278;2022-07-30T09:39:48;8.48;;;3.40;;
73857;SDS011;62195;55.030;73.278;2022-07-30T09:42:33;5.82;;;2.90;;
73857;SDS011;62195;55.030;73.278;2022-07-30T09:45:07;4.70;;;3.40;;
73857;SDS011;62195;55.030;73.278;2022-07-30T09:47:48;3.22;;;2.92;;
73857;SDS011;62195;55.030;73.278;2022-07-30T09:50:17;5.55;;;3.60;;
73857;SDS011;62195;55.030;73.278;2022-07-30T09:52:45;9.60;;;2.92;;
73857;SDS011;62195;55.030;73.278;2022-07-30T09:55:13;5.45;;;3.17;;
73857;SDS011;62195;55.030;73.278;2022-07-30T09:58:15;5.45;;;3.40;;
73857;SDS011;62195;55.030;73.278;2022-07-30T10:00:36;6.10;;;3.15;;
73857;SDS011;62195;55.030;73.278;2022-07-30T10:03:29;5.25;;;3.33;;
73857;SDS011;62195;55.030;73.278;2022-07-30T10:06:31;3.88;;;3.08;;
73857;SDS011;62195;55.030;73.278;2022-07-30T10:09:00;6.32;;;3.17;;
73857;SDS011;62195;55.030;73.278;2022-07-30T10:11:26;7.45;;;3.25;;
73857;SDS011;62195;55.030;73.278;2022-07-30T10:13:57;4.68;;;3.20;;
73857;SDS011;62195;55.030;73.278;2022-07-30T10:16:30;10.13;;;3.70;;
73857;SDS011;62195;55.030;73.278;2022-07-30T10:19:02;5.97;;;3.20;;
73857;SDS011;62195;55.030;73.278;2022-07-30T10:22:07;4.63;;;3.05;;
73857;SDS011;62195;55.030;73.278;2022-07-30T10:24:55;7.38;;;3.17;;
73857;SDS011;62195;55.030;73.278;2022-07-30T10:27:41;8.27;;;3.45;;
73857;SDS011;62195;55.030;73.278;2022-07-30T10:30:34;4.38;;;3.30;;
73857;SDS011;62195;55.030;73.278;2022-07-30T10:33:01;7.00;;;3.90;;
73857;SDS011;62195;55.030;73.278;2022-07-30T10:35:28;4.22;;;3.28;;
73857;SDS011;62195;55.030;73.278;2022-07-30T10:37:54;4.60;;;3.35;;
73857;SDS011;62195;55.030;73.278;2022-07-30T10:40:31;3.47;;;3.10;;
73857;SDS011;62195;55.030;73.278;2022-07-30T10:46:21;4.85;;;3.40;;
73857;SDS011;62195;55.030;73.278;2022-07-30T10:49:11;4.35;;;3.10;;
73857;SDS011;62195;55.030;73.278;2022-07-30T10:51:43;4.53;;;3.47;;
73857;SDS011;62195;55.030;73.278;2022-07-30T10:54:44;5.35;;;2.70;;
73857;SDS011;62195;55.030;73.278;2022-07-30T10:57:16;5.15;;;3.63;;
73857;SDS011;62195;55.030;73.278;2022-07-30T11:02:28;7.43;;;2.97;;
73857;SDS011;62195;55.030;73.278;2022-07-30T11:05:42;8.82;;;3.55;;
73857;SDS011;62195;55.030;73.278;2022-07-30T11:07:43;7.55;;;3.88;;
73857;SDS011;62195;55.030;73.278;2022-07-30T11:13:06;4.00;;;3.10;;
73857;SDS011;62195;55.030;73.278;2022-07-30T11:18:26;3.60;;;2.70;;
73857;SDS011;62195;55.030;73.278;2022-07-30T11:21:12;3.30;;;2.70;;
73857;SDS011;62195;55.030;73.278;2022-07-30T11:23:41;2.60;;;2.40;;
73857;SDS011;62195;55.030;73.278;2022-07-30T11:26:08;6.25;;;3.03;;
73857;SDS011;62195;55.030;73.278;2022-07-30T11:28:43;4.55;;;2.67;;
73857;SDS011;62195;55.030;73.278;2022-07-30T11:47:43;5.43;;;3.10;;
73857;SDS011;62195;55.030;73.278;2022-07-30T11:52:55;4.70;;;2.70;;
73857;SDS011;62195;55.030;73.278;2022-07-30T11:55:28;6.07;;;2.88;;
73857;SDS011;62195;55.030;73.278;2022-07-30T11:58:21;4.00;;;2.80;;
73857;SDS011;62195;55.030;73.278;2022-07-30T12:00:58;2.97;;;2.50;;
73857;SDS011;62195;55.030;73.278;2022-07-30T12:03:29;6.18;;;2.78;;
73857;SDS011;62195;55.030;73.278;2022-07-30T12:06:07;7.35;;;3.35;;
73857;SDS011;62195;55.030;73.278;2022-07-30T12:08:41;8.43;;;3.25;;
73857;SDS011;62195;55.030;73.278;2022-07-30T12:11:09;3.78;;;2.88;;
73857;SDS011;62195;55.030;73.278;2022-07-30T12:13:36;3.00;;;2.58;;
73857;SDS011;62195;55.030;73.278;2022-07-30T12:16:07;3.40;;;2.90;;
73857;SDS011;62195;55.030;73.278;2022-07-30T12:18:34;3.42;;;3.13;;
73857;SDS011;62195;55.030;73.278;2022-07-30T12:21:02;3.88;;;2.75;;
73857;SDS011;62195;55.030;73.278;2022-07-30T12:23:42;3.50;;;2.80;;
73857;SDS011;62195;55.030;73.278;2022-07-30T12:26:19;4.53;;;3.70;;
73857;SDS011;62195;55.030;73.278;2022-07-30T12:36:31;6.28;;;4.53;;
73857;SDS011;62195;55.030;73.278;2022-07-30T12:38:59;6.72;;;4.78;;
73857;SDS011;62195;55.030;73.278;2022-07-30T12:41:48;8.23;;;4.97;;
73857;SDS011;62195;55.030;73.278;2022-07-30T12:44:37;5.82;;;4.43;;
73857;SDS011;62195;55.030;73.278;2022-07-30T12:47:20;9.82;;;5.30;;
73857;SDS011;62195;55.030;73.278;2022-07-30T12:49:59;6.70;;;3.50;;
73857;SDS011;62195;55.030;73.278;2022-07-30T12:52:36;6.13;;;3.67;;
73857;SDS011;62195;55.030;73.278;2022-07-30T13:06:14;5.18;;;4.03;;
73857;SDS011;62195;55.030;73.278;2022-07-30T13:08:54;4.90;;;3.90;;
73857;SDS011;62195;55.030;73.278;2022-07-30T13:11:26;6.30;;;3.90;;
73857;SDS011;62195;55.030;73.278;2022-07-30T13:14:03;6.63;;;3.83;;
73857;SDS011;62195;55.030;73.278;2022-07-30T13:16:30;4.25;;;3.70;;
73857;SDS011;62195;55.030;73.278;2022-07-30T13:18:58;6.35;;;3.70;;
73857;SDS011;62195;55.030;73.278;2022-07-30T13:21:25;9.18;;;4.82;;
73857;SDS011;62195;55.030;73.278;2022-07-30T13:23:56;8.50;;;4.85;;
73857;SDS011;62195;55.030;73.278;2022-07-30T13:26:22;8.00;;;4.60;;
73857;SDS011;62195;55.030;73.278;2022-07-30T13:28:48;5.93;;;4.10;;
73857;SDS011;62195;55.030;73.278;2022-07-30T13:31:26;6.25;;;3.70;;
73857;SDS011;62195;55.030;73.278;2022-07-30T13:33:52;4.15;;;3.75;;
73857;SDS011;62195;55.030;73.278;2022-07-30T13:36:21;6.60;;;4.13;;
73857;SDS011;62195;55.030;73.278;2022-07-30T13:38:48;8.73;;;4.55;;
73857;SDS011;62195;55.030;73.278;2022-07-30T13:41:14;7.45;;;3.97;;
73857;SDS011;62195;55.030;73.278;2022-07-30T13:43:43;8.18;;;4.63;;
73857;SDS011;62195;55.030;73.278;2022-07-30T13:46:09;7.93;;;4.80;;
73857;SDS011;62195;55.030;73.278;2022-07-30T13:48:35;10.90;;;4.80;;
73857;SDS011;62195;55.030;73.278;2022-07-30T13:51:02;8.27;;;5.20;;
73857;SDS011;62195;55.030;73.278;2022-07-30T13:53:34;10.43;;;5.25;;
73857;SDS011;62195;55.030;73.278;2022-07-30T13:56:01;10.40;;;4.85;;
73857;SDS011;62195;55.030;73.278;2022-07-30T13:58:28;9.32;;;5.13;;
73857;SDS011;62195;55.030;73.278;2022-07-30T14:00:54;10.95;;;6.47;;
73857;SDS011;62195;55.030;73.278;2022-07-30T14:03:21;10.25;;;5.85;;
73857;SDS011;62195;55.030;73.278;2022-07-30T14:05:57;9.07;;;5.45;;
73857;SDS011;62195;55.030;73.278;2022-07-30T14:08:23;8.75;;;5.85;;
73857;SDS011;62195;55.030;73.278;2022-07-30T14:10:50;8.63;;;4.90;;
73857;SDS011;62195;55.030;73.278;2022-07-30T14:13:16;10.65;;;5.90;;
73857;SDS011;62195;55.030;73.278;2022-07-30T14:15:44;9.90;;;5.65;;
73857;SDS011;62195;55.030;73.278;2022-07-30T14:18:11;12.38;;;6.13;;
73857;SDS011;62195;55.030;73.278;2022-07-30T14:20:37;13.80;;;6.63;;
73857;SDS011;62195;55.030;73.278;2022-07-30T14:23:05;8.90;;;6.65;;
73857;SDS011;62195;55.030;73.278;2022-07-30T14:25:32;8.05;;;5.88;;
73857;SDS011;62195;55.030;73.278;2022-07-30T14:32:31;10.82;;;8.07;;
73857;SDS011;62195;55.030;73.278;2022-07-30T14:34:58;12.15;;;8.43;;
73857;SDS011;62195;55.030;73.278;2022-07-30T14:37:24;10.55;;;7.65;;
73857;SDS011;62195;55.030;73.278;2022-07-30T14:39:52;10.23;;;7.50;;
73857;SDS011;62195;55.030;73.278;2022-07-30T14:44:50;13.50;;;7.35;;
73857;SDS011;62195;55.030;73.278;2022-07-30T14:47:16;14.20;;;7.72;;
73857;SDS011;62195;55.030;73.278;2022-07-30T14:49:52;13.65;;;9.07;;
73857;SDS011;62195;55.030;73.278;2022-07-30T14:52:20;19.50;;;9.43;;
73857;SDS011;62195;55.030;73.278;2022-07-30T14:54:56;12.55;;;9.32;;
73857;SDS011;62195;55.030;73.278;2022-07-30T14:57:24;9.45;;;7.40;;
73857;SDS011;62195;55.030;73.278;2022-07-30T14:59:51;14.55;;;7.30;;
73857;SDS011;62195;55.030;73.278;2022-07-30T15:02:17;12.57;;;7.03;;
73857;SDS011;62195;55.030;73.278;2022-07-30T15:04:54;10.13;;;6.60;;
73857;SDS011;62195;55.030;73.278;2022-07-30T15:07:23;10.43;;;6.75;;
73857;SDS011;62195;55.030;73.278;2022-07-30T15:09:59;10.02;;;6.65;;
73857;SDS011;62195;55.030;73.278;2022-07-30T15:12:30;12.30;;;6.40;;
73857;SDS011;62195;55.030;73.278;2022-07-30T15:15:00;13.70;;;6.95;;
73857;SDS011;62195;55.030;73.278;2022-07-30T15:17:36;14.43;;;6.97;;
73857;SDS011;62195;55.030;73.278;2022-07-30T15:20:07;9.55;;;6.72;;
73857;SDS011;62195;55.030;73.278;2022-07-30T15:22:34;10.88;;;7.07;;
73857;SDS011;62195;55.030;73.278;2022-07-30T15:25:00;15.10;;;6.88;;
73857;SDS011;62195;55.030;73.278;2022-07-30T15:27:36;12.63;;;6.78;;
73857;SDS011;62195;55.030;73.278;2022-07-30T15:30:08;16.35;;;6.82;;
73857;SDS011;62195;55.030;73.278;2022-07-30T15:32:40;15.93;;;6.75;;
73857;SDS011;62195;55.030;73.278;2022-07-30T15:35:06;11.90;;;6.45;;
73857;SDS011;62195;55.030;73.278;2022-07-30T15:37:33;17.60;;;8.95;;
73857;SDS011;62195;55.030;73.278;2022-07-30T15:39:59;14.88;;;9.50;;
73857;SDS011;62195;55.030;73.278;2022-07-30T15:42:25;19.83;;;9.70;;
73857;SDS011;62195;55.030;73.278;2022-07-30T15:44:52;14.23;;;8.25;;
73857;SDS011;62195;55.030;73.278;2022-07-30T15:47:18;20.35;;;9.05;;
73857;SDS011;62195;55.030;73.278;2022-07-30T15:49:44;18.70;;;8.25;;
73857;SDS011;62195;55.030;73.278;2022-07-30T15:52:20;14.55;;;7.55;;
73857;SDS011;62195;55.030;73.278;2022-07-30T15:54:47;12.88;;;7.85;;
73857;SDS011;62195;55.030;73.278;2022-07-30T15:57:13;13.02;;;7.82;;
73857;SDS011;62195;55.030;73.278;2022-07-30T15:59:42;13.35;;;7.95;;
73857;SDS011;62195;55.030;73.278;2022-07-30T16:02:08;16.15;;;8.00;;
73857;SDS011;62195;55.030;73.278;2022-07-30T16:04:34;11.23;;;7.45;;
73857;SDS011;62195;55.030;73.278;2022-07-30T16:07:10;10.00;;;7.18;;
73857;SDS011;62195;55.030;73.278;2022-07-30T16:09:36;16.35;;;8.15;;
73857;SDS011;62195;55.030;73.278;2022-07-30T16:12:13;11.30;;;7.18;;
73857;SDS011;62195;55.030;73.278;2022-07-30T16:14:39;13.57;;;7.60;;
73857;SDS011;62195;55.030;73.278;2022-07-30T16:17:05;18.23;;;8.23;;